sensor_id;sensor_type;location;lat;lon;timestamp;temperature;humidity
16627;DHT22;8427;52.204;7.202;2023-05-19T00:00:20;7.50;85.20
16627;DHT22;8427;52.204;7.202;2023-05-19T00:02:49;7.60;85.10
16627;DHT22;8427;52.204;7.202;2023-05-19T00:05:18;7.70;84.90
16627;DHT22;8427;52.204;7.202;2023-05-19T00:07:47;7.50;84.80
16627;DHT22;8427;52.204;7.202;2023-05-19T00:10:19;7.20;85.30
16627;DHT22;8427;52.204;7.202;2023-05-19T00:12:47;7.60;85.20
16627;DHT22;8427;52.204;7.202;2023-05-19T00:15:21;7.30;85.00
16627;DHT22;8427;52.204;7.202;2023-05-19T00:17:49;7.30;85.20
16627;DHT22;8427;52.204;7.202;2023-05-19T00:20:18;7.40;85.10
16627;DHT22;8427;52.204;7.202;2023-05-19T00:22:45;7.50;85.20
16627;DHT22;8427;52.204;7.202;2023-05-19T00:25:14;7.20;85.40
16627;DHT22;8427;52.204;7.202;2023-05-19T00:27:41;7.30;85.50
16627;DHT22;8427;52.204;7.202;2023-05-19T00:30:10;7.20;85.70
16627;DHT22;8427;52.204;7.202;2023-05-19T00:32:39;7.20;85.70
16627;DHT22;8427;52.204;7.202;2023-05-19T00:35:08;7.30;85.90
16627;DHT22;8427;52.204;7.202;2023-05-19T00:37:36;6.90;85.70
16627;DHT22;8427;52.204;7.202;2023-05-19T00:40:05;7.20;85.80
16627;DHT22;8427;52.204;7.202;2023-05-19T00:42:33;7.20;85.80
16627;DHT22;8427;52.204;7.202;2023-05-19T00:45:01;7.00;85.80
16627;DHT22;8427;52.204;7.202;2023-05-19T00:47:29;7.00;86.00
16627;DHT22;8427;52.204;7.202;2023-05-19T00:49:59;6.90;86.00
16627;DHT22;8427;52.204;7.202;2023-05-19T00:52:27;7.00;86.10
16627;DHT22;8427;52.204;7.202;2023-05-19T00:54:55;7.00;86.10
16627;DHT22;8427;52.204;7.202;2023-05-19T00:57:23;6.90;86.10
16627;DHT22;8427;52.204;7.202;2023-05-19T00:59:52;6.80;86.10
16627;DHT22;8427;52.204;7.202;2023-05-19T01:02:20;6.90;86.00
16627;DHT22;8427;52.204;7.202;2023-05-19T01:04:49;6.70;86.20
16627;DHT22;8427;52.204;7.202;2023-05-19T01:07:20;7.00;86.30
16627;DHT22;8427;52.204;7.202;2023-05-19T01:09:48;6.90;86.60
16627;DHT22;8427;52.204;7.202;2023-05-19T01:12:17;6.90;87.10
16627;DHT22;8427;52.204;7.202;2023-05-19T01:14:45;6.90;87.40
16627;DHT22;8427;52.204;7.202;2023-05-19T01:17:18;7.00;87.50
16627;DHT22;8427;52.204;7.202;2023-05-19T01:19:55;7.00;87.60
16627;DHT22;8427;52.204;7.202;2023-05-19T01:22:44;7.20;87.60
16627;DHT22;8427;52.204;7.202;2023-05-19T01:25:40;7.10;87.30
16627;DHT22;8427;52.204;7.202;2023-05-19T01:28:43;6.90;87.40
16627;DHT22;8427;52.204;7.202;2023-05-19T01:31:16;7.00;87.10
16627;DHT22;8427;52.204;7.202;2023-05-19T01:33:51;6.80;86.90
16627;DHT22;8427;52.204;7.202;2023-05-19T01:36:21;6.70;87.10
16627;DHT22;8427;52.204;7.202;2023-05-19T01:38:51;6.80;87.20
16627;DHT22;8427;52.204;7.202;2023-05-19T01:41:21;6.70;87.50
16627;DHT22;8427;52.204;7.202;2023-05-19T01:43:50;6.70;87.40
16627;DHT22;8427;52.204;7.202;2023-05-19T01:46:20;6.70;87.40
16627;DHT22;8427;52.204;7.202;2023-05-19T01:48:49;6.70;87.30
16627;DHT22;8427;52.204;7.202;2023-05-19T01:51:17;6.60;87.30
16627;DHT22;8427;52.204;7.202;2023-05-19T01:53:45;6.50;87.20
16627;DHT22;8427;52.204;7.202;2023-05-19T01:56:15;6.60;87.30
16627;DHT22;8427;52.204;7.202;2023-05-19T01:58:50;6.60;87.20
16627;DHT22;8427;52.204;7.202;2023-05-19T02:01:28;6.40;87.20
16627;DHT22;8427;52.204;7.202;2023-05-19T02:04:04;6.60;87.20
16627;DHT22;8427;52.204;7.202;2023-05-19T02:06:41;6.40;87.20
16627;DHT22;8427;52.204;7.202;2023-05-19T02:09:15;6.40;87.90
16627;DHT22;8427;52.204;7.202;2023-05-19T02:11:55;6.40;87.70
16627;DHT22;8427;52.204;7.202;2023-05-19T02:14:31;6.20;87.70
16627;DHT22;8427;52.204;7.202;2023-05-19T02:17:03;6.10;87.70
16627;DHT22;8427;52.204;7.202;2023-05-19T02:19:36;6.20;87.80
16627;DHT22;8427;52.204;7.202;2023-05-19T02:22:05;6.30;87.70
16627;DHT22;8427;52.204;7.202;2023-05-19T02:24:33;6.30;87.60
16627;DHT22;8427;52.204;7.202;2023-05-19T02:27:02;6.20;87.70
16627;DHT22;8427;52.204;7.202;2023-05-19T02:29:30;6.20;87.70
16627;DHT22;8427;52.204;7.202;2023-05-19T02:31:59;6.10;87.80
16627;DHT22;8427;52.204;7.202;2023-05-19T02:34:29;6.10;87.60
16627;DHT22;8427;52.204;7.202;2023-05-19T02:36:57;6.00;87.70
16627;DHT22;8427;52.204;7.202;2023-05-19T02:39:25;6.00;88.00
16627;DHT22;8427;52.204;7.202;2023-05-19T02:41:54;6.10;88.10
16627;DHT22;8427;52.204;7.202;2023-05-19T02:44:22;6.10;87.90
16627;DHT22;8427;52.204;7.202;2023-05-19T02:46:50;6.00;88.00
16627;DHT22;8427;52.204;7.202;2023-05-19T02:49:18;5.80;88.20
16627;DHT22;8427;52.204;7.202;2023-05-19T02:51:48;6.00;88.30
16627;DHT22;8427;52.204;7.202;2023-05-19T02:54:16;6.00;88.10
16627;DHT22;8427;52.204;7.202;2023-05-19T02:56:44;6.10;88.10
16627;DHT22;8427;52.204;7.202;2023-05-19T02:59:12;6.10;88.30
16627;DHT22;8427;52.204;7.202;2023-05-19T03:01:40;5.90;88.50
16627;DHT22;8427;52.204;7.202;2023-05-19T03:04:08;6.00;88.60
16627;DHT22;8427;52.204;7.202;2023-05-19T03:06:36;5.90;88.70
16627;DHT22;8427;52.204;7.202;2023-05-19T03:09:06;6.20;88.90
16627;DHT22;8427;52.204;7.202;2023-05-19T03:11:34;6.10;88.80
16627;DHT22;8427;52.204;7.202;2023-05-19T03:14:02;6.30;89.00
16627;DHT22;8427;52.204;7.202;2023-05-19T03:16:30;6.30;88.90
16627;DHT22;8427;52.204;7.202;2023-05-19T03:18:58;6.30;88.80
16627;DHT22;8427;52.204;7.202;2023-05-19T03:21:26;6.20;88.70
16627;DHT22;8427;52.204;7.202;2023-05-19T03:23:54;6.10;88.80
16627;DHT22;8427;52.204;7.202;2023-05-19T03:26:23;6.30;88.60
16627;DHT22;8427;52.204;7.202;2023-05-19T03:28:51;6.10;88.90
16627;DHT22;8427;52.204;7.202;2023-05-19T03:31:19;6.00;88.90
16627;DHT22;8427;52.204;7.202;2023-05-19T03:33:47;6.00;88.70
16627;DHT22;8427;52.204;7.202;2023-05-19T03:36:15;6.10;88.80
16627;DHT22;8427;52.204;7.202;2023-05-19T03:38:44;6.30;88.60
16627;DHT22;8427;52.204;7.202;2023-05-19T03:41:12;6.20;88.80
16627;DHT22;8427;52.204;7.202;2023-05-19T03:43:41;6.20;88.80
16627;DHT22;8427;52.204;7.202;2023-05-19T03:46:09;6.10;88.60
16627;DHT22;8427;52.204;7.202;2023-05-19T03:48:37;6.00;88.60
16627;DHT22;8427;52.204;7.202;2023-05-19T03:51:05;6.00;88.80
16627;DHT22;8427;52.204;7.202;2023-05-19T03:53:34;6.30;88.80
16627;DHT22;8427;52.204;7.202;2023-05-19T03:56:02;6.10;89.00
16627;DHT22;8427;52.204;7.202;2023-05-19T03:58:31;6.00;89.00
16627;DHT22;8427;52.204;7.202;2023-05-19T04:01:00;6.10;89.10
16627;DHT22;8427;52.204;7.202;2023-05-19T04:03:28;6.20;89.10
16627;DHT22;8427;52.204;7.202;2023-05-19T04:05:56;6.40;89.20
16627;DHT22;8427;52.204;7.202;2023-05-19T04:08:24;6.20;88.90
16627;DHT22;8427;52.204;7.202;2023-05-19T04:10:52;6.40;88.70
16627;DHT22;8427;52.204;7.202;2023-05-19T04:13:20;6.50;88.80
16627;DHT22;8427;52.204;7.202;2023-05-19T04:15:48;6.40;88.70
16627;DHT22;8427;52.204;7.202;2023-05-19T04:18:18;6.50;88.60
16627;DHT22;8427;52.204;7.202;2023-05-19T04:20:46;6.50;88.60
16627;DHT22;8427;52.204;7.202;2023-05-19T04:23:14;6.50;88.80
16627;DHT22;8427;52.204;7.202;2023-05-19T04:25:42;6.70;88.70
16627;DHT22;8427;52.204;7.202;2023-05-19T04:28:10;6.70;88.60
16627;DHT22;8427;52.204;7.202;2023-05-19T04:30:38;6.80;88.40
16627;DHT22;8427;52.204;7.202;2023-05-19T04:33:06;6.90;88.20
16627;DHT22;8427;52.204;7.202;2023-05-19T04:35:36;6.70;88.20
16627;DHT22;8427;52.204;7.202;2023-05-19T04:38:05;7.00;88.10
16627;DHT22;8427;52.204;7.202;2023-05-19T04:40:33;7.10;87.80
16627;DHT22;8427;52.204;7.202;2023-05-19T04:43:01;7.00;87.80
16627;DHT22;8427;52.204;7.202;2023-05-19T04:45:29;7.20;87.70
16627;DHT22;8427;52.204;7.202;2023-05-19T04:47:58;7.50;87.30
16627;DHT22;8427;52.204;7.202;2023-05-19T04:50:27;7.50;86.50
16627;DHT22;8427;52.204;7.202;2023-05-19T04:52:58;7.70;86.50
16627;DHT22;8427;52.204;7.202;2023-05-19T04:55:26;7.80;86.00
16627;DHT22;8427;52.204;7.202;2023-05-19T04:57:54;7.90;85.70
16627;DHT22;8427;52.204;7.202;2023-05-19T05:00:22;7.80;85.60
16627;DHT22;8427;52.204;7.202;2023-05-19T05:02:50;7.90;84.90
16627;DHT22;8427;52.204;7.202;2023-05-19T05:05:19;8.10;84.30
16627;DHT22;8427;52.204;7.202;2023-05-19T05:07:47;8.20;83.90
16627;DHT22;8427;52.204;7.202;2023-05-19T05:10:16;8.30;84.20
16627;DHT22;8427;52.204;7.202;2023-05-19T05:12:44;8.40;83.20
16627;DHT22;8427;52.204;7.202;2023-05-19T05:15:13;8.40;83.70
16627;DHT22;8427;52.204;7.202;2023-05-19T05:17:41;8.50;83.50
16627;DHT22;8427;52.204;7.202;2023-05-19T05:20:11;8.70;81.90
16627;DHT22;8427;52.204;7.202;2023-05-19T05:22:40;8.70;81.90
16627;DHT22;8427;52.204;7.202;2023-05-19T05:25:09;8.90;80.80
16627;DHT22;8427;52.204;7.202;2023-05-19T05:27:38;9.00;80.30
16627;DHT22;8427;52.204;7.202;2023-05-19T05:30:07;9.00;80.70
16627;DHT22;8427;52.204;7.202;2023-05-19T05:32:35;9.40;80.80
16627;DHT22;8427;52.204;7.202;2023-05-19T05:35:04;9.50;79.50
16627;DHT22;8427;52.204;7.202;2023-05-19T05:37:32;9.70;79.60
16627;DHT22;8427;52.204;7.202;2023-05-19T05:40:00;9.60;77.90
16627;DHT22;8427;52.204;7.202;2023-05-19T05:42:29;9.80;78.20
16627;DHT22;8427;52.204;7.202;2023-05-19T05:44:58;10.00;79.00
16627;DHT22;8427;52.204;7.202;2023-05-19T05:47:27;10.10;78.00
16627;DHT22;8427;52.204;7.202;2023-05-19T05:49:55;10.10;77.30
16627;DHT22;8427;52.204;7.202;2023-05-19T05:52:26;10.40;77.00
16627;DHT22;8427;52.204;7.202;2023-05-19T05:54:56;10.50;75.40
16627;DHT22;8427;52.204;7.202;2023-05-19T05:57:24;10.50;74.70
16627;DHT22;8427;52.204;7.202;2023-05-19T05:59:52;10.70;74.80
16627;DHT22;8427;52.204;7.202;2023-05-19T06:02:22;10.70;74.40
16627;DHT22;8427;52.204;7.202;2023-05-19T06:04:50;10.70;74.60
16627;DHT22;8427;52.204;7.202;2023-05-19T06:07:20;10.80;74.00
16627;DHT22;8427;52.204;7.202;2023-05-19T06:09:48;10.80;74.60
16627;DHT22;8427;52.204;7.202;2023-05-19T06:12:16;10.90;74.50
16627;DHT22;8427;52.204;7.202;2023-05-19T06:14:44;11.10;72.80
16627;DHT22;8427;52.204;7.202;2023-05-19T06:17:12;11.30;71.00
16627;DHT22;8427;52.204;7.202;2023-05-19T06:19:41;11.30;70.90
16627;DHT22;8427;52.204;7.202;2023-05-19T06:22:09;11.40;71.50
16627;DHT22;8427;52.204;7.202;2023-05-19T06:24:37;11.80;74.50
16627;DHT22;8427;52.204;7.202;2023-05-19T06:27:05;11.90;72.70
16627;DHT22;8427;52.204;7.202;2023-05-19T06:29:33;12.10;70.60
16627;DHT22;8427;52.204;7.202;2023-05-19T06:32:01;12.30;69.00
16627;DHT22;8427;52.204;7.202;2023-05-19T06:34:29;12.40;68.80
16627;DHT22;8427;52.204;7.202;2023-05-19T06:36:59;12.30;67.00
16627;DHT22;8427;52.204;7.202;2023-05-19T06:39:28;12.40;67.70
16627;DHT22;8427;52.204;7.202;2023-05-19T06:41:57;12.60;65.50
16627;DHT22;8427;52.204;7.202;2023-05-19T06:44:25;12.60;67.10
16627;DHT22;8427;52.204;7.202;2023-05-19T06:46:53;12.80;66.50
16627;DHT22;8427;52.204;7.202;2023-05-19T06:49:21;12.90;64.50
16627;DHT22;8427;52.204;7.202;2023-05-19T06:51:49;12.90;66.30
16627;DHT22;8427;52.204;7.202;2023-05-19T06:54:18;13.20;66.40
16627;DHT22;8427;52.204;7.202;2023-05-19T06:56:46;13.30;66.10
16627;DHT22;8427;52.204;7.202;2023-05-19T06:59:14;13.40;64.70
16627;DHT22;8427;52.204;7.202;2023-05-19T07:01:42;13.40;64.90
16627;DHT22;8427;52.204;7.202;2023-05-19T07:04:10;13.40;63.40
16627;DHT22;8427;52.204;7.202;2023-05-19T07:06:38;13.50;64.30
16627;DHT22;8427;52.204;7.202;2023-05-19T07:09:06;13.60;64.50
16627;DHT22;8427;52.204;7.202;2023-05-19T07:11:36;13.80;65.70
16627;DHT22;8427;52.204;7.202;2023-05-19T07:14:04;14.00;63.70
16627;DHT22;8427;52.204;7.202;2023-05-19T07:16:32;14.00;65.40
16627;DHT22;8427;52.204;7.202;2023-05-19T07:19:00;14.00;61.40
16627;DHT22;8427;52.204;7.202;2023-05-19T07:21:28;14.10;65.90
16627;DHT22;8427;52.204;7.202;2023-05-19T07:23:56;14.20;62.30
16627;DHT22;8427;52.204;7.202;2023-05-19T07:26:24;14.20;60.80
16627;DHT22;8427;52.204;7.202;2023-05-19T07:28:54;14.30;62.90
16627;DHT22;8427;52.204;7.202;2023-05-19T07:31:23;14.40;60.40
16627;DHT22;8427;52.204;7.202;2023-05-19T07:33:51;14.60;59.10
16627;DHT22;8427;52.204;7.202;2023-05-19T07:36:20;14.80;61.50
16627;DHT22;8427;52.204;7.202;2023-05-19T07:38:48;14.90;62.50
16627;DHT22;8427;52.204;7.202;2023-05-19T07:41:16;15.00;57.90
16627;DHT22;8427;52.204;7.202;2023-05-19T07:43:44;15.10;58.50
16627;DHT22;8427;52.204;7.202;2023-05-19T07:46:13;15.20;58.60
16627;DHT22;8427;52.204;7.202;2023-05-19T07:48:41;15.00;55.80
16627;DHT22;8427;52.204;7.202;2023-05-19T07:51:11;15.10;59.20
16627;DHT22;8427;52.204;7.202;2023-05-19T07:53:39;15.10;56.70
16627;DHT22;8427;52.204;7.202;2023-05-19T07:56:06;15.20;56.50
16627;DHT22;8427;52.204;7.202;2023-05-19T07:58:35;15.40;60.90
16627;DHT22;8427;52.204;7.202;2023-05-19T08:01:03;15.40;55.20
16627;DHT22;8427;52.204;7.202;2023-05-19T08:03:32;15.40;55.00
16627;DHT22;8427;52.204;7.202;2023-05-19T08:06:01;15.60;52.70
16627;DHT22;8427;52.204;7.202;2023-05-19T08:08:29;15.60;53.50
16627;DHT22;8427;52.204;7.202;2023-05-19T08:11:01;15.70;54.90
16627;DHT22;8427;52.204;7.202;2023-05-19T08:13:30;15.90;54.50
16627;DHT22;8427;52.204;7.202;2023-05-19T08:15:58;16.00;53.30
16627;DHT22;8427;52.204;7.202;2023-05-19T08:18:26;16.00;51.90
16627;DHT22;8427;52.204;7.202;2023-05-19T08:20:55;16.00;52.50
16627;DHT22;8427;52.204;7.202;2023-05-19T08:23:24;16.00;52.20
16627;DHT22;8427;52.204;7.202;2023-05-19T08:25:52;16.10;53.60
16627;DHT22;8427;52.204;7.202;2023-05-19T08:28:20;16.30;53.80
16627;DHT22;8427;52.204;7.202;2023-05-19T08:30:49;16.30;49.60
16627;DHT22;8427;52.204;7.202;2023-05-19T08:33:17;16.40;51.70
16627;DHT22;8427;52.204;7.202;2023-05-19T08:35:47;16.60;50.40
16627;DHT22;8427;52.204;7.202;2023-05-19T08:38:16;16.80;48.80
16627;DHT22;8427;52.204;7.202;2023-05-19T08:40:46;16.70;50.00
16627;DHT22;8427;52.204;7.202;2023-05-19T08:43:14;16.80;49.00
16627;DHT22;8427;52.204;7.202;2023-05-19T08:45:43;16.90;48.30
16627;DHT22;8427;52.204;7.202;2023-05-19T08:48:15;17.10;49.80
16627;DHT22;8427;52.204;7.202;2023-05-19T08:50:49;17.30;46.30
16627;DHT22;8427;52.204;7.202;2023-05-19T08:53:22;17.50;46.40
16627;DHT22;8427;52.204;7.202;2023-05-19T08:56:03;17.60;47.60
16627;DHT22;8427;52.204;7.202;2023-05-19T08:58:37;17.50;46.00
16627;DHT22;8427;52.204;7.202;2023-05-19T09:01:06;17.80;49.50
16627;DHT22;8427;52.204;7.202;2023-05-19T09:03:35;17.80;48.90
16627;DHT22;8427;52.204;7.202;2023-05-19T09:06:05;17.80;45.30
16627;DHT22;8427;52.204;7.202;2023-05-19T09:08:35;17.90;44.70
16627;DHT22;8427;52.204;7.202;2023-05-19T09:11:03;17.90;44.50
16627;DHT22;8427;52.204;7.202;2023-05-19T09:13:31;18.00;45.20
16627;DHT22;8427;52.204;7.202;2023-05-19T09:15:59;18.00;44.60
16627;DHT22;8427;52.204;7.202;2023-05-19T09:18:29;18.00;42.70
16627;DHT22;8427;52.204;7.202;2023-05-19T09:20:58;18.10;43.90
16627;DHT22;8427;52.204;7.202;2023-05-19T09:23:30;18.00;45.60
16627;DHT22;8427;52.204;7.202;2023-05-19T09:26:02;17.70;43.10
16627;DHT22;8427;52.204;7.202;2023-05-19T09:28:34;17.60;43.50
16627;DHT22;8427;52.204;7.202;2023-05-19T09:31:04;17.70;44.90
16627;DHT22;8427;52.204;7.202;2023-05-19T09:33:33;17.80;44.10
16627;DHT22;8427;52.204;7.202;2023-05-19T09:36:01;17.90;46.90
16627;DHT22;8427;52.204;7.202;2023-05-19T09:38:31;17.90;44.60
16627;DHT22;8427;52.204;7.202;2023-05-19T09:41:01;18.00;43.60
16627;DHT22;8427;52.204;7.202;2023-05-19T09:43:30;17.90;42.80
16627;DHT22;8427;52.204;7.202;2023-05-19T09:45:59;18.00;45.00
16627;DHT22;8427;52.204;7.202;2023-05-19T09:48:28;18.00;43.70
16627;DHT22;8427;52.204;7.202;2023-05-19T09:50:56;18.10;42.70
16627;DHT22;8427;52.204;7.202;2023-05-19T09:53:24;18.20;43.00
16627;DHT22;8427;52.204;7.202;2023-05-19T09:55:55;18.30;42.40
16627;DHT22;8427;52.204;7.202;2023-05-19T09:58:25;18.20;40.10
16627;DHT22;8427;52.204;7.202;2023-05-19T10:00:54;18.10;42.30
16627;DHT22;8427;52.204;7.202;2023-05-19T10:03:22;18.20;40.20
16627;DHT22;8427;52.204;7.202;2023-05-19T10:05:52;18.10;41.60
16627;DHT22;8427;52.204;7.202;2023-05-19T10:08:21;18.20;42.20
16627;DHT22;8427;52.204;7.202;2023-05-19T10:10:52;18.60;46.00
16627;DHT22;8427;52.204;7.202;2023-05-19T10:13:20;18.80;41.40
16627;DHT22;8427;52.204;7.202;2023-05-19T10:15:51;18.70;39.60
16627;DHT22;8427;52.204;7.202;2023-05-19T10:18:26;18.70;41.40
16627;DHT22;8427;52.204;7.202;2023-05-19T10:20:55;18.80;41.40
16627;DHT22;8427;52.204;7.202;2023-05-19T10:23:24;18.80;39.60
16627;DHT22;8427;52.204;7.202;2023-05-19T10:25:55;19.00;40.10
16627;DHT22;8427;52.204;7.202;2023-05-19T10:28:33;19.00;39.50
16627;DHT22;8427;52.204;7.202;2023-05-19T10:31:06;19.00;39.80
16627;DHT22;8427;52.204;7.202;2023-05-19T10:33:46;18.90;41.20
16627;DHT22;8427;52.204;7.202;2023-05-19T10:36:33;18.90;40.60
16627;DHT22;8427;52.204;7.202;2023-05-19T10:39:10;19.20;42.20
16627;DHT22;8427;52.204;7.202;2023-05-19T10:41:46;19.20;40.70
16627;DHT22;8427;52.204;7.202;2023-05-19T10:44:27;19.20;40.40
16627;DHT22;8427;52.204;7.202;2023-05-19T10:46:59;19.10;40.00
16627;DHT22;8427;52.204;7.202;2023-05-19T10:49:27;18.80;41.00
16627;DHT22;8427;52.204;7.202;2023-05-19T10:51:55;18.80;42.50
16627;DHT22;8427;52.204;7.202;2023-05-19T10:54:38;18.80;43.00
16627;DHT22;8427;52.204;7.202;2023-05-19T10:57:07;18.80;40.90
16627;DHT22;8427;52.204;7.202;2023-05-19T10:59:36;18.80;42.10
16627;DHT22;8427;52.204;7.202;2023-05-19T11:02:07;18.70;40.30
16627;DHT22;8427;52.204;7.202;2023-05-19T11:04:38;18.70;40.40
16627;DHT22;8427;52.204;7.202;2023-05-19T11:07:17;18.80;41.20
16627;DHT22;8427;52.204;7.202;2023-05-19T11:09:49;19.00;42.30
16627;DHT22;8427;52.204;7.202;2023-05-19T11:12:21;18.90;41.40
16627;DHT22;8427;52.204;7.202;2023-05-19T11:14:51;18.80;40.90
16627;DHT22;8427;52.204;7.202;2023-05-19T11:17:23;18.90;41.60
16627;DHT22;8427;52.204;7.202;2023-05-19T11:19:53;19.00;40.30
16627;DHT22;8427;52.204;7.202;2023-05-19T11:22:22;18.90;41.40
16627;DHT22;8427;52.204;7.202;2023-05-19T11:24:53;18.80;42.10
16627;DHT22;8427;52.204;7.202;2023-05-19T11:27:24;18.70;41.30
16627;DHT22;8427;52.204;7.202;2023-05-19T11:29:54;18.60;40.80
16627;DHT22;8427;52.204;7.202;2023-05-19T11:32:28;18.70;42.40
16627;DHT22;8427;52.204;7.202;2023-05-19T11:34:57;18.60;44.30
16627;DHT22;8427;52.204;7.202;2023-05-19T11:37:25;18.60;39.70
16627;DHT22;8427;52.204;7.202;2023-05-19T11:39:54;18.70;39.70
16627;DHT22;8427;52.204;7.202;2023-05-19T11:42:22;18.70;41.60
16627;DHT22;8427;52.204;7.202;2023-05-19T11:44:54;18.80;39.30
16627;DHT22;8427;52.204;7.202;2023-05-19T11:47:22;18.70;40.20
16627;DHT22;8427;52.204;7.202;2023-05-19T11:49:52;18.90;39.50
16627;DHT22;8427;52.204;7.202;2023-05-19T11:52:22;19.10;41.90
16627;DHT22;8427;52.204;7.202;2023-05-19T11:54:50;19.30;40.10
16627;DHT22;8427;52.204;7.202;2023-05-19T11:57:19;19.50;38.60
16627;DHT22;8427;52.204;7.202;2023-05-19T11:59:47;19.50;37.10
16627;DHT22;8427;52.204;7.202;2023-05-19T12:02:18;19.50;38.20
16627;DHT22;8427;52.204;7.202;2023-05-19T12:04:47;19.50;38.00
16627;DHT22;8427;52.204;7.202;2023-05-19T12:07:18;19.50;38.20
16627;DHT22;8427;52.204;7.202;2023-05-19T12:09:49;19.50;41.00
16627;DHT22;8427;52.204;7.202;2023-05-19T12:12:19;19.50;37.50
16627;DHT22;8427;52.204;7.202;2023-05-19T12:14:49;19.50;38.30
16627;DHT22;8427;52.204;7.202;2023-05-19T12:17:18;19.70;36.80
16627;DHT22;8427;52.204;7.202;2023-05-19T12:19:47;19.90;35.80
16627;DHT22;8427;52.204;7.202;2023-05-19T12:22:17;20.10;35.90
16627;DHT22;8427;52.204;7.202;2023-05-19T12:24:46;20.40;36.30
16627;DHT22;8427;52.204;7.202;2023-05-19T12:27:17;20.50;38.10
16627;DHT22;8427;52.204;7.202;2023-05-19T12:29:48;20.40;36.80
16627;DHT22;8427;52.204;7.202;2023-05-19T12:32:17;20.70;36.90
16627;DHT22;8427;52.204;7.202;2023-05-19T12:34:45;20.60;36.00
16627;DHT22;8427;52.204;7.202;2023-05-19T12:37:13;20.40;36.80
16627;DHT22;8427;52.204;7.202;2023-05-19T12:39:43;19.90;36.70
16627;DHT22;8427;52.204;7.202;2023-05-19T12:42:11;20.00;37.60
16627;DHT22;8427;52.204;7.202;2023-05-19T12:44:42;20.30;37.10
16627;DHT22;8427;52.204;7.202;2023-05-19T12:47:12;20.50;35.50
16627;DHT22;8427;52.204;7.202;2023-05-19T12:49:53;20.70;35.20
16627;DHT22;8427;52.204;7.202;2023-05-19T12:52:21;20.40;37.70
16627;DHT22;8427;52.204;7.202;2023-05-19T12:54:57;20.10;37.10
16627;DHT22;8427;52.204;7.202;2023-05-19T12:57:25;19.70;37.20
16627;DHT22;8427;52.204;7.202;2023-05-19T12:59:59;19.40;37.90
16627;DHT22;8427;52.204;7.202;2023-05-19T13:02:27;19.20;39.00
16627;DHT22;8427;52.204;7.202;2023-05-19T13:04:55;19.40;38.50
16627;DHT22;8427;52.204;7.202;2023-05-19T13:07:24;19.70;40.70
16627;DHT22;8427;52.204;7.202;2023-05-19T13:09:53;19.80;38.60
16627;DHT22;8427;52.204;7.202;2023-05-19T13:12:22;20.10;39.60
16627;DHT22;8427;52.204;7.202;2023-05-19T13:14:50;20.30;36.90
16627;DHT22;8427;52.204;7.202;2023-05-19T13:17:21;20.80;37.50
16627;DHT22;8427;52.204;7.202;2023-05-19T13:19:49;21.30;37.40
16627;DHT22;8427;52.204;7.202;2023-05-19T13:22:18;21.50;39.00
16627;DHT22;8427;52.204;7.202;2023-05-19T13:24:46;21.20;35.10
16627;DHT22;8427;52.204;7.202;2023-05-19T13:27:15;20.80;35.50
16627;DHT22;8427;52.204;7.202;2023-05-19T13:29:43;20.20;37.30
16627;DHT22;8427;52.204;7.202;2023-05-19T13:32:11;20.30;38.70
16627;DHT22;8427;52.204;7.202;2023-05-19T13:34:39;20.40;36.10
16627;DHT22;8427;52.204;7.202;2023-05-19T13:37:07;20.60;36.70
16627;DHT22;8427;52.204;7.202;2023-05-19T13:39:36;20.70;37.60
16627;DHT22;8427;52.204;7.202;2023-05-19T13:42:04;20.90;36.60
16627;DHT22;8427;52.204;7.202;2023-05-19T13:44:34;21.30;38.20
16627;DHT22;8427;52.204;7.202;2023-05-19T13:47:02;21.30;34.90
16627;DHT22;8427;52.204;7.202;2023-05-19T13:49:30;21.30;36.80
16627;DHT22;8427;52.204;7.202;2023-05-19T13:51:58;20.90;38.10
16627;DHT22;8427;52.204;7.202;2023-05-19T13:54:26;20.80;38.40
16627;DHT22;8427;52.204;7.202;2023-05-19T13:56:54;20.60;36.60
16627;DHT22;8427;52.204;7.202;2023-05-19T13:59:24;20.60;36.80
16627;DHT22;8427;52.204;7.202;2023-05-19T14:01:53;20.80;36.70
16627;DHT22;8427;52.204;7.202;2023-05-19T14:04:21;21.10;35.20
16627;DHT22;8427;52.204;7.202;2023-05-19T14:06:50;21.10;36.00
16627;DHT22;8427;52.204;7.202;2023-05-19T14:09:18;21.00;34.80
16627;DHT22;8427;52.204;7.202;2023-05-19T14:11:46;20.50;37.10
16627;DHT22;8427;52.204;7.202;2023-05-19T14:14:14;20.40;39.80
16627;DHT22;8427;52.204;7.202;2023-05-19T14:16:43;20.30;36.60
16627;DHT22;8427;52.204;7.202;2023-05-19T14:19:12;20.10;36.80
16627;DHT22;8427;52.204;7.202;2023-05-19T14:21:40;20.20;38.00
16627;DHT22;8427;52.204;7.202;2023-05-19T14:24:08;20.30;39.90
16627;DHT22;8427;52.204;7.202;2023-05-19T14:26:36;20.20;37.20
16627;DHT22;8427;52.204;7.202;2023-05-19T14:29:04;19.90;36.10
16627;DHT22;8427;52.204;7.202;2023-05-19T14:31:32;20.00;36.80
16627;DHT22;8427;52.204;7.202;2023-05-19T14:34:01;20.10;37.90
16627;DHT22;8427;52.204;7.202;2023-05-19T14:36:30;20.30;35.20
16627;DHT22;8427;52.204;7.202;2023-05-19T14:38:59;20.40;35.20
16627;DHT22;8427;52.204;7.202;2023-05-19T14:41:27;20.60;35.40
16627;DHT22;8427;52.204;7.202;2023-05-19T14:43:55;20.70;35.50
16627;DHT22;8427;52.204;7.202;2023-05-19T14:46:23;20.90;34.80
16627;DHT22;8427;52.204;7.202;2023-05-19T14:48:51;21.10;35.80
16627;DHT22;8427;52.204;7.202;2023-05-19T14:51:19;21.40;37.60
16627;DHT22;8427;52.204;7.202;2023-05-19T14:53:49;21.20;33.60
16627;DHT22;8427;52.204;7.202;2023-05-19T14:56:19;20.70;34.70
16627;DHT22;8427;52.204;7.202;2023-05-19T14:58:48;20.50;36.10
16627;DHT22;8427;52.204;7.202;2023-05-19T15:01:16;20.60;36.60
16627;DHT22;8427;52.204;7.202;2023-05-19T15:03:44;20.60;35.80
16627;DHT22;8427;52.204;7.202;2023-05-19T15:06:12;20.60;35.80
16627;DHT22;8427;52.204;7.202;2023-05-19T15:08:40;20.40;35.50
16627;DHT22;8427;52.204;7.202;2023-05-19T15:11:09;20.30;36.30
16627;DHT22;8427;52.204;7.202;2023-05-19T15:13:37;20.40;35.70
16627;DHT22;8427;52.204;7.202;2023-05-19T15:16:05;20.60;33.80
16627;DHT22;8427;52.204;7.202;2023-05-19T15:18:43;20.60;34.40
16627;DHT22;8427;52.204;7.202;2023-05-19T15:21:12;20.80;33.70
16627;DHT22;8427;52.204;7.202;2023-05-19T15:23:40;21.20;34.80
16627;DHT22;8427;52.204;7.202;2023-05-19T15:26:09;21.70;34.60
16627;DHT22;8427;52.204;7.202;2023-05-19T15:28:37;22.10;33.60
16627;DHT22;8427;52.204;7.202;2023-05-19T15:31:05;21.60;34.00
16627;DHT22;8427;52.204;7.202;2023-05-19T15:33:33;21.10;36.00
16627;DHT22;8427;52.204;7.202;2023-05-19T15:36:01;20.70;36.60
16627;DHT22;8427;52.204;7.202;2023-05-19T15:38:33;20.50;39.10
16627;DHT22;8427;52.204;7.202;2023-05-19T15:41:05;21.00;36.10
16627;DHT22;8427;52.204;7.202;2023-05-19T15:43:34;21.90;34.80
16627;DHT22;8427;52.204;7.202;2023-05-19T15:46:02;23.30;33.10
16627;DHT22;8427;52.204;7.202;2023-05-19T15:48:31;24.20;32.10
16627;DHT22;8427;52.204;7.202;2023-05-19T15:50:59;24.40;28.90
16627;DHT22;8427;52.204;7.202;2023-05-19T15:53:27;23.60;30.10
16627;DHT22;8427;52.204;7.202;2023-05-19T15:55:55;22.60;31.10
16627;DHT22;8427;52.204;7.202;2023-05-19T15:58:23;22.00;32.30
16627;DHT22;8427;52.204;7.202;2023-05-19T16:00:53;22.10;31.40
16627;DHT22;8427;52.204;7.202;2023-05-19T16:03:21;22.20;32.20
16627;DHT22;8427;52.204;7.202;2023-05-19T16:05:49;22.70;30.40